sensor_id;sensor_type;location;lat;lon;timestamp;temperature;humidity
66586;SHT30;53444;45.822;16.092;2022-12-10T00:01:14;6.92;99.92
66586;SHT30;53444;45.822;16.092;2022-12-10T00:03:42;6.94;99.85
66586;SHT30;53444;45.822;16.092;2022-12-10T00:06:11;6.88;99.99
66586;SHT30;53444;45.822;16.092;2022-12-10T00:08:39;6.91;99.99
66586;SHT30;53444;45.822;16.092;2022-12-10T00:11:09;6.89;99.99
66586;SHT30;53444;45.822;16.092;2022-12-10T00:13:36;6.89;99.99
66586;SHT30;53444;45.822;16.092;2022-12-10T00:16:07;6.88;99.99
66586;SHT30;53444;45.822;16.092;2022-12-10T00:18:34;6.94;99.99
66586;SHT30;53444;45.822;16.092;2022-12-10T00:21:02;6.95;99.99
66586;SHT30;53444;45.822;16.092;2022-12-10T00:23:29;6.92;99.99
66586;SHT30;53444;45.822;16.092;2022-12-10T00:26:01;6.94;99.98
66586;SHT30;53444;45.822;16.092;2022-12-10T00:28:28;6.91;99.99
66586;SHT30;53444;45.822;16.092;2022-12-10T00:30:54;6.92;99.99
66586;SHT30;53444;45.822;16.092;2022-12-10T00:33:22;6.94;99.99
66586;SHT30;53444;45.822;16.092;2022-12-10T00:35:49;6.92;99.99
66586;SHT30;53444;45.822;16.092;2022-12-10T00:38:16;6.92;99.99
66586;SHT30;53444;45.822;16.092;2022-12-10T00:40:42;6.91;99.99
66586;SHT30;53444;45.822;16.092;2022-12-10T00:43:09;6.94;99.99
66586;SHT30;53444;45.822;16.092;2022-12-10T00:45:35;6.97;99.99
66586;SHT30;53444;45.822;16.092;2022-12-10T00:48:02;7.01;99.99
66586;SHT30;53444;45.822;16.092;2022-12-10T00:50:30;7.02;99.99
66586;SHT30;53444;45.822;16.092;2022-12-10T00:52:56;7.02;99.99
66586;SHT30;53444;45.822;16.092;2022-12-10T00:55:23;7.02;99.99
66586;SHT30;53444;45.822;16.092;2022-12-10T00:57:50;7.05;99.99
66586;SHT30;53444;45.822;16.092;2022-12-10T01:00:17;7.04;99.99
66586;SHT30;53444;45.822;16.092;2022-12-10T01:02:43;7.04;99.99
66586;SHT30;53444;45.822;16.092;2022-12-10T01:05:10;7.07;99.99
66586;SHT30;53444;45.822;16.092;2022-12-10T01:07:38;7.02;99.99
66586;SHT30;53444;45.822;16.092;2022-12-10T01:10:05;7.08;99.99
66586;SHT30;53444;45.822;16.092;2022-12-10T01:12:31;7.11;99.94
66586;SHT30;53444;45.822;16.092;2022-12-10T01:14:58;7.14;99.84
66586;SHT30;53444;45.822;16.092;2022-12-10T01:17:26;7.16;99.77
66586;SHT30;53444;45.822;16.092;2022-12-10T01:19:52;7.18;99.72
66586;SHT30;53444;45.822;16.092;2022-12-10T01:22:19;7.14;99.79
66586;SHT30;53444;45.822;16.092;2022-12-10T01:24:47;7.11;99.81
66586;SHT30;53444;45.822;16.092;2022-12-10T01:27:13;7.09;99.82
66586;SHT30;53444;45.822;16.092;2022-12-10T01:29:40;7.11;99.73
66586;SHT30;53444;45.822;16.092;2022-12-10T01:32:07;7.11;99.74
66586;SHT30;53444;45.822;16.092;2022-12-10T01:34:33;7.11;99.71
66586;SHT30;53444;45.822;16.092;2022-12-10T01:37:00;7.11;99.70
66586;SHT30;53444;45.822;16.092;2022-12-10T01:39:26;7.07;99.80
66586;SHT30;53444;45.822;16.092;2022-12-10T01:41:56;7.08;99.75
66586;SHT30;53444;45.822;16.092;2022-12-10T01:47:27;7.08;99.82
66586;SHT30;53444;45.822;16.092;2022-12-10T01:49:54;7.08;99.87
66586;SHT30;53444;45.822;16.092;2022-12-10T01:52:20;7.07;99.93
66586;SHT30;53444;45.822;16.092;2022-12-10T01:54:47;7.07;99.99
66586;SHT30;53444;45.822;16.092;2022-12-10T01:57:17;7.12;99.88
66586;SHT30;53444;45.822;16.092;2022-12-10T01:59:57;7.08;99.99
66586;SHT30;53444;45.822;16.092;2022-12-10T02:02:33;7.09;99.99
66586;SHT30;53444;45.822;16.092;2022-12-10T02:05:09;7.12;99.89
66586;SHT30;53444;45.822;16.092;2022-12-10T02:07:44;7.12;99.90
66586;SHT30;53444;45.822;16.092;2022-12-10T02:10:22;7.15;99.82
66586;SHT30;53444;45.822;16.092;2022-12-10T02:13:06;7.15;99.90
66586;SHT30;53444;45.822;16.092;2022-12-10T02:15:36;7.16;99.81
66586;SHT30;53444;45.822;16.092;2022-12-10T02:18:08;7.16;99.87
66586;SHT30;53444;45.822;16.092;2022-12-10T02:20:38;7.18;99.79
66586;SHT30;53444;45.822;16.092;2022-12-10T02:23:10;7.16;99.79
66586;SHT30;53444;45.822;16.092;2022-12-10T02:25:41;7.16;99.79
66586;SHT30;53444;45.822;16.092;2022-12-10T02:28:15;7.15;99.82
66586;SHT30;53444;45.822;16.092;2022-12-10T02:30:45;7.18;99.75
66586;SHT30;53444;45.822;16.092;2022-12-10T02:33:14;7.22;99.71
66586;SHT30;53444;45.822;16.092;2022-12-10T02:35:43;7.22;99.71
66586;SHT30;53444;45.822;16.092;2022-12-10T02:38:14;7.20;99.76
66586;SHT30;53444;45.822;16.092;2022-12-10T02:40:44;7.20;99.73
66586;SHT30;53444;45.822;16.092;2022-12-10T02:43:13;7.29;99.54
66586;SHT30;53444;45.822;16.092;2022-12-10T02:45:41;7.30;99.41
66586;SHT30;53444;45.822;16.092;2022-12-10T02:48:11;7.26;99.47
66586;SHT30;53444;45.822;16.092;2022-12-10T02:50:38;7.28;99.48
66586;SHT30;53444;45.822;16.092;2022-12-10T02:53:05;7.29;99.49
66586;SHT30;53444;45.822;16.092;2022-12-10T02:55:42;7.26;99.45
66586;SHT30;53444;45.822;16.092;2022-12-10T02:58:17;7.25;99.62
66586;SHT30;53444;45.822;16.092;2022-12-10T03:00:51;7.28;99.47
66586;SHT30;53444;45.822;16.092;2022-12-10T03:03:28;7.30;99.59
66586;SHT30;53444;45.822;16.092;2022-12-10T03:06:05;7.32;99.61
66586;SHT30;53444;45.822;16.092;2022-12-10T03:08:40;7.29;99.57
66586;SHT30;53444;45.822;16.092;2022-12-10T03:11:11;7.25;99.95
66586;SHT30;53444;45.822;16.092;2022-12-10T03:13:43;7.29;99.96
66586;SHT30;53444;45.822;16.092;2022-12-10T03:16:11;7.36;99.91
66586;SHT30;53444;45.822;16.092;2022-12-10T03:18:41;7.32;99.87
66586;SHT30;53444;45.822;16.092;2022-12-10T03:21:10;7.33;99.84
66586;SHT30;53444;45.822;16.092;2022-12-10T03:23:40;7.36;99.74
66586;SHT30;53444;45.822;16.092;2022-12-10T03:26:08;7.33;99.69
66586;SHT30;53444;45.822;16.092;2022-12-10T03:28:38;7.36;99.62
66586;SHT30;53444;45.822;16.092;2022-12-10T03:31:07;7.36;99.62
66586;SHT30;53444;45.822;16.092;2022-12-10T03:33:37;7.35;99.61
66586;SHT30;53444;45.822;16.092;2022-12-10T03:36:07;7.35;99.55
66586;SHT30;53444;45.822;16.092;2022-12-10T03:38:34;7.38;99.57
66586;SHT30;53444;45.822;16.092;2022-12-10T03:41:02;7.42;99.35
66586;SHT30;53444;45.822;16.092;2022-12-10T03:43:28;7.40;99.43
66586;SHT30;53444;45.822;16.092;2022-12-10T03:45:55;7.39;99.43
66586;SHT30;53444;45.822;16.092;2022-12-10T03:48:22;7.42;99.36
66586;SHT30;53444;45.822;16.092;2022-12-10T03:50:48;7.45;99.31
66586;SHT30;53444;45.822;16.092;2022-12-10T03:53:16;7.43;99.13
66586;SHT30;53444;45.822;16.092;2022-12-10T03:55:43;7.42;99.32
66586;SHT30;53444;45.822;16.092;2022-12-10T03:58:09;7.38;99.37
66586;SHT30;53444;45.822;16.092;2022-12-10T04:00:36;7.39;99.38
66586;SHT30;53444;45.822;16.092;2022-12-10T04:03:02;7.40;99.09
66586;SHT30;53444;45.822;16.092;2022-12-10T04:05:29;7.39;98.60
66586;SHT30;53444;45.822;16.092;2022-12-10T04:07:56;7.33;97.92
66586;SHT30;53444;45.822;16.092;2022-12-10T04:10:24;7.29;97.33
66586;SHT30;53444;45.822;16.092;2022-12-10T04:12:50;7.23;97.20
66586;SHT30;53444;45.822;16.092;2022-12-10T04:15:38;7.18;97.15
66586;SHT30;53444;45.822;16.092;2022-12-10T04:18:22;7.16;97.11
66586;SHT30;53444;45.822;16.092;2022-12-10T04:20:49;7.16;97.41
66586;SHT30;53444;45.822;16.092;2022-12-10T04:23:33;7.07;97.29
66586;SHT30;53444;45.822;16.092;2022-12-10T04:26:18;7.01;97.04
66586;SHT30;53444;45.822;16.092;2022-12-10T04:29:02;6.99;96.89
66586;SHT30;53444;45.822;16.092;2022-12-10T04:31:29;6.95;96.98
66586;SHT30;53444;45.822;16.092;2022-12-10T04:33:55;6.84;97.19
66586;SHT30;53444;45.822;16.092;2022-12-10T04:36:22;6.85;97.23
66586;SHT30;53444;45.822;16.092;2022-12-10T04:38:48;6.85;97.23
66586;SHT30;53444;45.822;16.092;2022-12-10T04:41:15;6.83;97.35
66586;SHT30;53444;45.822;16.092;2022-12-10T04:43:43;6.85;97.30
66586;SHT30;53444;45.822;16.092;2022-12-10T04:46:11;6.81;97.25
66586;SHT30;53444;45.822;16.092;2022-12-10T04:48:37;6.75;97.08
66586;SHT30;53444;45.822;16.092;2022-12-10T04:51:04;6.74;96.88
66586;SHT30;53444;45.822;16.092;2022-12-10T04:53:31;6.71;96.78
66586;SHT30;53444;45.822;16.092;2022-12-10T04:55:57;6.71;96.69
66586;SHT30;53444;45.822;16.092;2022-12-10T04:58:26;6.70;96.79
66586;SHT30;53444;45.822;16.092;2022-12-10T05:01:02;6.67;96.77
66586;SHT30;53444;45.822;16.092;2022-12-10T05:03:29;6.71;96.98
66586;SHT30;53444;45.822;16.092;2022-12-10T05:05:55;6.61;97.21
66586;SHT30;53444;45.822;16.092;2022-12-10T05:08:22;6.61;97.28
66586;SHT30;53444;45.822;16.092;2022-12-10T05:10:48;6.63;97.21
66586;SHT30;53444;45.822;16.092;2022-12-10T05:13:15;6.61;97.26
66586;SHT30;53444;45.822;16.092;2022-12-10T05:15:41;6.53;97.38
66586;SHT30;53444;45.822;16.092;2022-12-10T05:18:09;6.53;97.38
66586;SHT30;53444;45.822;16.092;2022-12-10T05:20:36;6.56;96.85
66586;SHT30;53444;45.822;16.092;2022-12-10T05:23:03;6.61;96.76
66586;SHT30;53444;45.822;16.092;2022-12-10T05:25:46;6.63;96.70
66586;SHT30;53444;45.822;16.092;2022-12-10T05:28:19;6.61;96.83
66586;SHT30;53444;45.822;16.092;2022-12-10T05:30:46;6.60;96.63
66586;SHT30;53444;45.822;16.092;2022-12-10T05:33:14;6.60;96.60
66586;SHT30;53444;45.822;16.092;2022-12-10T05:35:41;6.60;96.55
66586;SHT30;53444;45.822;16.092;2022-12-10T05:38:08;6.54;96.57
66586;SHT30;53444;45.822;16.092;2022-12-10T05:40:36;6.53;96.62
66586;SHT30;53444;45.822;16.092;2022-12-10T05:43:02;6.50;96.44
66586;SHT30;53444;45.822;16.092;2022-12-10T05:45:31;6.54;95.95
66586;SHT30;53444;45.822;16.092;2022-12-10T05:47:58;6.50;95.36
66586;SHT30;53444;45.822;16.092;2022-12-10T05:50:27;6.48;94.89
66586;SHT30;53444;45.822;16.092;2022-12-10T05:52:54;6.48;94.93
66586;SHT30;53444;45.822;16.092;2022-12-10T05:55:20;6.37;95.69
66586;SHT30;53444;45.822;16.092;2022-12-10T05:57:47;6.41;95.52
66586;SHT30;53444;45.822;16.092;2022-12-10T06:00:14;6.38;95.44
66586;SHT30;53444;45.822;16.092;2022-12-10T06:02:41;6.34;95.78
66586;SHT30;53444;45.822;16.092;2022-12-10T06:05:08;6.34;95.31
66586;SHT30;53444;45.822;16.092;2022-12-10T06:07:36;6.36;95.18
66586;SHT30;53444;45.822;16.092;2022-12-10T06:10:03;6.37;95.39
66586;SHT30;53444;45.822;16.092;2022-12-10T06:12:30;6.37;94.99
66586;SHT30;53444;45.822;16.092;2022-12-10T06:14:56;6.34;94.76
66586;SHT30;53444;45.822;16.092;2022-12-10T06:17:23;6.43;94.09
66586;SHT30;53444;45.822;16.092;2022-12-10T06:19:49;6.32;94.28
66586;SHT30;53444;45.822;16.092;2022-12-10T06:22:16;6.33;94.32
66586;SHT30;53444;45.822;16.092;2022-12-10T06:24:44;6.27;93.53
66586;SHT30;53444;45.822;16.092;2022-12-10T06:27:11;6.20;94.30
66586;SHT30;53444;45.822;16.092;2022-12-10T06:29:37;6.30;93.98
66586;SHT30;53444;45.822;16.092;2022-12-10T06:32:04;6.34;93.40
66586;SHT30;53444;45.822;16.092;2022-12-10T06:34:31;6.23;93.89
66586;SHT30;53444;45.822;16.092;2022-12-10T06:36:57;6.23;93.11
66586;SHT30;53444;45.822;16.092;2022-12-10T06:39:24;6.25;93.28
66586;SHT30;53444;45.822;16.092;2022-12-10T06:41:52;6.23;93.20
66586;SHT30;53444;45.822;16.092;2022-12-10T06:44:18;6.23;93.53
66586;SHT30;53444;45.822;16.092;2022-12-10T06:46:45;6.25;93.15
66586;SHT30;53444;45.822;16.092;2022-12-10T06:49:12;6.23;93.41
66586;SHT30;53444;45.822;16.092;2022-12-10T06:51:38;6.16;93.73
66586;SHT30;53444;45.822;16.092;2022-12-10T06:54:05;6.12;93.24
66586;SHT30;53444;45.822;16.092;2022-12-10T06:56:32;6.13;93.17
66586;SHT30;53444;45.822;16.092;2022-12-10T06:59:03;6.09;93.39
66586;SHT30;53444;45.822;16.092;2022-12-10T07:01:31;6.07;93.11
66586;SHT30;53444;45.822;16.092;2022-12-10T07:03:58;6.03;93.63
66586;SHT30;53444;45.822;16.092;2022-12-10T07:06:26;6.06;93.37
66586;SHT30;53444;45.822;16.092;2022-12-10T07:08:53;6.07;93.06
66586;SHT30;53444;45.822;16.092;2022-12-10T07:11:21;6.02;93.20
66586;SHT30;53444;45.822;16.092;2022-12-10T07:13:48;6.05;93.69
66586;SHT30;53444;45.822;16.092;2022-12-10T07:16:19;5.98;93.13
66586;SHT30;53444;45.822;16.092;2022-12-10T07:18:47;5.96;93.17
66586;SHT30;53444;45.822;16.092;2022-12-10T07:21:14;5.89;93.43
66586;SHT30;53444;45.822;16.092;2022-12-10T07:23:41;5.92;93.26
66586;SHT30;53444;45.822;16.092;2022-12-10T07:26:08;5.85;93.11
66586;SHT30;53444;45.822;16.092;2022-12-10T07:28:35;5.79;93.53
66586;SHT30;53444;45.822;16.092;2022-12-10T07:31:01;5.84;93.42
66586;SHT30;53444;45.822;16.092;2022-12-10T07:33:30;5.84;92.83
66586;SHT30;53444;45.822;16.092;2022-12-10T07:35:56;5.79;92.93
66586;SHT30;53444;45.822;16.092;2022-12-10T07:38:23;5.81;92.88
66586;SHT30;53444;45.822;16.092;2022-12-10T07:40:50;5.84;92.95
66586;SHT30;53444;45.822;16.092;2022-12-10T07:43:17;5.85;92.99
66586;SHT30;53444;45.822;16.092;2022-12-10T07:45:46;5.85;92.84
66586;SHT30;53444;45.822;16.092;2022-12-10T07:48:13;5.78;92.43
66586;SHT30;53444;45.822;16.092;2022-12-10T07:50:41;5.82;92.16
66586;SHT30;53444;45.822;16.092;2022-12-10T07:53:08;5.86;91.91
66586;SHT30;53444;45.822;16.092;2022-12-10T07:55:37;5.86;92.07
66586;SHT30;53444;45.822;16.092;2022-12-10T07:58:04;5.86;91.72
66586;SHT30;53444;45.822;16.092;2022-12-10T08:00:30;5.88;91.66
66586;SHT30;53444;45.822;16.092;2022-12-10T08:02:59;5.89;91.58
66586;SHT30;53444;45.822;16.092;2022-12-10T08:05:25;5.89;91.51
66586;SHT30;53444;45.822;16.092;2022-12-10T08:07:53;5.93;91.30
66586;SHT30;53444;45.822;16.092;2022-12-10T08:10:20;5.91;91.55
66586;SHT30;53444;45.822;16.092;2022-12-10T08:12:47;5.89;91.84
66586;SHT30;53444;45.822;16.092;2022-12-10T08:15:13;5.92;91.90
66586;SHT30;53444;45.822;16.092;2022-12-10T08:17:43;5.89;91.62
66586;SHT30;53444;45.822;16.092;2022-12-10T08:20:10;5.82;91.65
66586;SHT30;53444;45.822;16.092;2022-12-10T08:22:36;5.84;91.64
66586;SHT30;53444;45.822;16.092;2022-12-10T08:25:06;5.86;91.98
66586;SHT30;53444;45.822;16.092;2022-12-10T08:27:33;5.85;91.27
66586;SHT30;53444;45.822;16.092;2022-12-10T08:30:00;5.89;91.77
66586;SHT30;53444;45.822;16.092;2022-12-10T08:32:26;5.92;91.72
66586;SHT30;53444;45.822;16.092;2022-12-10T08:34:53;5.92;92.18
66586;SHT30;53444;45.822;16.092;2022-12-10T08:37:20;5.89;92.41
66586;SHT30;53444;45.822;16.092;2022-12-10T08:39:46;5.81;92.22
66586;SHT30;53444;45.822;16.092;2022-12-10T08:42:14;5.85;92.15
66586;SHT30;53444;45.822;16.092;2022-12-10T08:44:41;5.84;92.44
66586;SHT30;53444;45.822;16.092;2022-12-10T08:47:08;5.85;92.54
66586;SHT30;53444;45.822;16.092;2022-12-10T08:49:35;5.81;91.99
66586;SHT30;53444;45.822;16.092;2022-12-10T08:52:01;5.78;91.86
66586;SHT30;53444;45.822;16.092;2022-12-10T08:54:28;5.74;92.41
66586;SHT30;53444;45.822;16.092;2022-12-10T08:57:00;5.75;92.78
66586;SHT30;53444;45.822;16.092;2022-12-10T08:59:29;5.72;92.69
66586;SHT30;53444;45.822;16.092;2022-12-10T09:01:58;5.69;92.76
66586;SHT30;53444;45.822;16.092;2022-12-10T09:04:25;5.68;92.33
66586;SHT30;53444;45.822;16.092;2022-12-10T09:06:52;5.66;92.81
66586;SHT30;53444;45.822;16.092;2022-12-10T09:09:19;5.74;91.76
66586;SHT30;53444;45.822;16.092;2022-12-10T09:11:46;5.66;92.14
66586;SHT30;53444;45.822;16.092;2022-12-10T09:14:13;5.54;91.97
66586;SHT30;53444;45.822;16.092;2022-12-10T09:16:41;5.58;91.76
66586;SHT30;53444;45.822;16.092;2022-12-10T09:19:09;5.62;91.65
66586;SHT30;53444;45.822;16.092;2022-12-10T09:21:35;5.58;92.05
66586;SHT30;53444;45.822;16.092;2022-12-10T09:24:02;5.55;91.34
66586;SHT30;53444;45.822;16.092;2022-12-10T09:26:29;5.52;91.34
66586;SHT30;53444;45.822;16.092;2022-12-10T09:28:56;5.54;91.85
66586;SHT30;53444;45.822;16.092;2022-12-10T09:31:23;5.44;92.28
66586;SHT30;53444;45.822;16.092;2022-12-10T09:33:54;5.50;91.35
66586;SHT30;53444;45.822;16.092;2022-12-10T09:36:21;5.43;92.22
66586;SHT30;53444;45.822;16.092;2022-12-10T09:38:49;5.44;92.57
66586;SHT30;53444;45.822;16.092;2022-12-10T09:41:40;5.38;93.13
66586;SHT30;53444;45.822;16.092;2022-12-10T09:44:13;5.34;92.46
66586;SHT30;53444;45.822;16.092;2022-12-10T09:46:51;5.41;92.95
66586;SHT30;53444;45.822;16.092;2022-12-10T09:49:26;5.43;93.08
66586;SHT30;53444;45.822;16.092;2022-12-10T09:52:00;5.38;93.42
66586;SHT30;53444;45.822;16.092;2022-12-10T09:54:31;5.40;93.61
66586;SHT30;53444;45.822;16.092;2022-12-10T09:57:00;5.33;93.06
66586;SHT30;53444;45.822;16.092;2022-12-10T09:59:30;5.33;93.39
66586;SHT30;53444;45.822;16.092;2022-12-10T10:02:03;5.35;92.88
66586;SHT30;53444;45.822;16.092;2022-12-10T10:04:40;5.35;92.97
66586;SHT30;53444;45.822;16.092;2022-12-10T10:07:08;5.21;93.27
66586;SHT30;53444;45.822;16.092;2022-12-10T10:09:39;5.28;93.62
66586;SHT30;53444;45.822;16.092;2022-12-10T10:12:11;5.19;94.07
66586;SHT30;53444;45.822;16.092;2022-12-10T10:14:40;5.24;93.96
66586;SHT30;53444;45.822;16.092;2022-12-10T10:17:12;5.27;93.73
66586;SHT30;53444;45.822;16.092;2022-12-10T10:19:43;5.21;93.80
66586;SHT30;53444;45.822;16.092;2022-12-10T10:22:10;4.99;94.42
66586;SHT30;53444;45.822;16.092;2022-12-10T10:24:40;5.01;94.81
66586;SHT30;53444;45.822;16.092;2022-12-10T10:27:13;5.01;94.74
66586;SHT30;53444;45.822;16.092;2022-12-10T10:29:42;5.16;94.42
66586;SHT30;53444;45.822;16.092;2022-12-10T10:32:14;5.21;94.47
66586;SHT30;53444;45.822;16.092;2022-12-10T10:34:44;5.24;93.98
66586;SHT30;53444;45.822;16.092;2022-12-10T10:37:18;5.23;94.14
66586;SHT30;53444;45.822;16.092;2022-12-10T10:39:49;5.20;94.36
66586;SHT30;53444;45.822;16.092;2022-12-10T10:42:27;5.19;94.26
66586;SHT30;53444;45.822;16.092;2022-12-10T10:44:55;5.27;93.79
66586;SHT30;53444;45.822;16.092;2022-12-10T10:47:28;5.30;94.30
66586;SHT30;53444;45.822;16.092;2022-12-10T10:49:57;5.34;94.26
66586;SHT30;53444;45.822;16.092;2022-12-10T10:52:34;5.35;93.96
66586;SHT30;53444;45.822;16.092;2022-12-10T10:55:01;5.38;93.90
66586;SHT30;53444;45.822;16.092;2022-12-10T10:57:33;5.43;93.26
66586;SHT30;53444;45.822;16.092;2022-12-10T11:00:04;5.40;93.47
66586;SHT30;53444;45.822;16.092;2022-12-10T11:02:35;5.34;93.88
66586;SHT30;53444;45.822;16.092;2022-12-10T11:05:07;5.40;93.69
66586;SHT30;53444;45.822;16.092;2022-12-10T11:07:37;5.45;93.89
66586;SHT30;53444;45.822;16.092;2022-12-10T11:10:18;5.50;93.63
66586;SHT30;53444;45.822;16.092;2022-12-10T11:12:55;5.44;93.01
66586;SHT30;53444;45.822;16.092;2022-12-10T11:15:31;5.44;93.38
66586;SHT30;53444;45.822;16.092;2022-12-10T11:17:59;5.50;93.42
66586;SHT30;53444;45.822;16.092;2022-12-10T11:20:30;5.43;93.63
66586;SHT30;53444;45.822;16.092;2022-12-10T11:22:59;5.52;94.74
66586;SHT30;53444;45.822;16.092;2022-12-10T11:25:37;5.54;93.50
66586;SHT30;53444;45.822;16.092;2022-12-10T11:28:17;5.55;93.39
66586;SHT30;53444;45.822;16.092;2022-12-10T11:30:53;5.50;93.62
66586;SHT30;53444;45.822;16.092;2022-12-10T11:33:26;5.52;94.08
66586;SHT30;53444;45.822;16.092;2022-12-10T11:36:00;5.58;93.54
66586;SHT30;53444;45.822;16.092;2022-12-10T11:38:41;5.51;94.14
66586;SHT30;53444;45.822;16.092;2022-12-10T11:41:17;5.48;93.89
66586;SHT30;53444;45.822;16.092;2022-12-10T11:43:56;5.56;93.93
66586;SHT30;53444;45.822;16.092;2022-12-10T11:46:38;5.61;94.14
66586;SHT30;53444;45.822;16.092;2022-12-10T11:49:20;5.48;93.91
66586;SHT30;53444;45.822;16.092;2022-12-10T11:51:54;5.54;94.41
66586;SHT30;53444;45.822;16.092;2022-12-10T11:54:42;5.54;93.78
66586;SHT30;53444;45.822;16.092;2022-12-10T11:57:17;5.45;93.88
66586;SHT30;53444;45.822;16.092;2022-12-10T11:59:52;5.51;93.59
66586;SHT30;53444;45.822;16.092;2022-12-10T12:05:24;5.30;93.95
66586;SHT30;53444;45.822;16.092;2022-12-10T12:08:02;5.50;94.58
66586;SHT30;53444;45.822;16.092;2022-12-10T12:10:48;5.52;93.80
66586;SHT30;53444;45.822;16.092;2022-12-10T12:13:20;5.48;93.56
66586;SHT30;53444;45.822;16.092;2022-12-10T12:15:51;5.51;93.17
66586;SHT30;53444;45.822;16.092;2022-12-10T12:18:21;5.45;93.85
66586;SHT30;53444;45.822;16.092;2022-12-10T12:20:53;5.31;92.91
66586;SHT30;53444;45.822;16.092;2022-12-10T12:23:26;5.34;93.12
66586;SHT30;53444;45.822;16.092;2022-12-10T12:25:58;5.40;92.77
66586;SHT30;53444;45.822;16.092;2022-12-10T12:28:30;5.30;92.73
66586;SHT30;53444;45.822;16.092;2022-12-10T12:30:59;5.26;92.82
66586;SHT30;53444;45.822;16.092;2022-12-10T12:33:31;5.28;92.90
66586;SHT30;53444;45.822;16.092;2022-12-10T12:36:04;5.20;93.31
66586;SHT30;53444;45.822;16.092;2022-12-10T12:38:41;5.23;92.81
66586;SHT30;53444;45.822;16.092;2022-12-10T12:41:14;5.27;92.98
66586;SHT30;53444;45.822;16.092;2022-12-10T12:43:46;5.30;93.20
66586;SHT30;53444;45.822;16.092;2022-12-10T12:46:19;5.34;93.33
66586;SHT30;53444;45.822;16.092;2022-12-10T12:48:52;5.28;92.82
66586;SHT30;53444;45.822;16.092;2022-12-10T12:51:26;5.37;93.26
66586;SHT30;53444;45.822;16.092;2022-12-10T12:53:55;5.37;93.18
66586;SHT30;53444;45.822;16.092;2022-12-10T12:56:28;5.45;92.54
66586;SHT30;53444;45.822;16.092;2022-12-10T12:59:06;5.45;93.01
66586;SHT30;53444;45.822;16.092;2022-12-10T13:01:38;5.48;92.69
66586;SHT30;53444;45.822;16.092;2022-12-10T13:04:06;5.45;92.34
66586;SHT30;53444;45.822;16.092;2022-12-10T13:06:35;5.45;92.31
66586;SHT30;53444;45.822;16.092;2022-12-10T13:09:27;5.54;92.34
66586;SHT30;53444;45.822;16.092;2022-12-10T13:12:18;5.55;92.50
66586;SHT30;53444;45.822;16.092;2022-12-10T13:15:00;5.50;92.82
66586;SHT30;53444;45.822;16.092;2022-12-10T13:17:32;5.50;93.19
66586;SHT30;53444;45.822;16.092;2022-12-10T13:20:32;5.44;91.75
66586;SHT30;53444;45.822;16.092;2022-12-10T13:23:01;5.44;92.04
66586;SHT30;53444;45.822;16.092;2022-12-10T13:28:29;5.45;92.46
66586;SHT30;53444;45.822;16.092;2022-12-10T13:31:17;5.35;92.43
66586;SHT30;53444;45.822;16.092;2022-12-10T13:33:48;5.37;92.54
66586;SHT30;53444;45.822;16.092;2022-12-10T13:36:21;5.37;92.67
66586;SHT30;53444;45.822;16.092;2022-12-10T13:38:57;5.33;93.23
66586;SHT30;53444;45.822;16.092;2022-12-10T13:41:26;5.38;93.17
66586;SHT30;53444;45.822;16.092;2022-12-10T13:44:45;5.37;93.35
66586;SHT30;53444;45.822;16.092;2022-12-10T13:47:26;5.37;93.17
66586;SHT30;53444;45.822;16.092;2022-12-10T13:49:56;5.30;93.76
66586;SHT30;53444;45.822;16.092;2022-12-10T13:52:26;5.27;93.86
66586;SHT30;53444;45.822;16.092;2022-12-10T13:55:19;5.31;93.69
66586;SHT30;53444;45.822;16.092;2022-12-10T13:58:06;5.30;93.84
66586;SHT30;53444;45.822;16.092;2022-12-10T14:00:39;5.27;94.07
66586;SHT30;53444;45.822;16.092;2022-12-10T14:06:15;5.27;93.69
66586;SHT30;53444;45.822;16.092;2022-12-10T14:08:52;5.27;93.32
66586;SHT30;53444;45.822;16.092;2022-12-10T14:11:21;5.27;93.13
66586;SHT30;53444;45.822;16.092;2022-12-10T14:13:53;5.37;93.00
66586;SHT30;53444;45.822;16.092;2022-12-10T14:16:23;5.28;93.28
66586;SHT30;53444;45.822;16.092;2022-12-10T14:18:53;5.24;93.45
66586;SHT30;53444;45.822;16.092;2022-12-10T14:21:22;5.21;93.22
66586;SHT30;53444;45.822;16.092;2022-12-10T14:23:51;5.13;93.15
66586;SHT30;53444;45.822;16.092;2022-12-10T14:26:21;5.16;93.68
66586;SHT30;53444;45.822;16.092;2022-12-10T14:28:54;5.17;93.46
66586;SHT30;53444;45.822;16.092;2022-12-10T14:31:26;5.23;93.26
66586;SHT30;53444;45.822;16.092;2022-12-10T14:34:00;5.21;93.26
66586;SHT30;53444;45.822;16.092;2022-12-10T14:36:30;5.10;93.08
66586;SHT30;53444;45.822;16.092;2022-12-10T14:38:59;5.06;93.27
66586;SHT30;53444;45.822;16.092;2022-12-10T14:41:30;5.17;92.83
66586;SHT30;53444;45.822;16.092;2022-12-10T14:44:03;5.01;93.47
66586;SHT30;53444;45.822;16.092;2022-12-10T14:46:31;5.21;92.18
66586;SHT30;53444;45.822;16.092;2022-12-10T14:48:59;5.10;92.01
66586;SHT30;53444;45.822;16.092;2022-12-10T14:51:32;5.01;92.04
66586;SHT30;53444;45.822;16.092;2022-12-10T14:53:59;5.06;92.49
66586;SHT30;53444;45.822;16.092;2022-12-10T14:56:29;4.99;92.06
66586;SHT30;53444;45.822;16.092;2022-12-10T14:59:06;5.01;92.23
66586;SHT30;53444;45.822;16.092;2022-12-10T15:01:38;5.03;92.44
66586;SHT30;53444;45.822;16.092;2022-12-10T15:04:13;5.07;92.17
66586;SHT30;53444;45.822;16.092;2022-12-10T15:06:40;5.17;91.10
66586;SHT30;53444;45.822;16.092;2022-12-10T15:09:13;5.13;91.95
66586;SHT30;53444;45.822;16.092;2022-12-10T15:11:41;5.04;91.90
66586;SHT30;53444;45.822;16.092;2022-12-10T15:14:17;5.01;91.95
66586;SHT30;53444;45.822;16.092;2022-12-10T15:16:45;5.10;92.28
66586;SHT30;53444;45.822;16.092;2022-12-10T15:19:19;5.01;92.05
66586;SHT30;53444;45.822;16.092;2022-12-10T15:21:47;4.82;92.40
66586;SHT30;53444;45.822;16.092;2022-12-10T15:24:17;4.82;91.80
66586;SHT30;53444;45.822;16.092;2022-12-10T15:26:46;4.83;91.93
66586;SHT30;53444;45.822;16.092;2022-12-10T15:29:34;4.79;91.95
66586;SHT30;53444;45.822;16.092;2022-12-10T15:32:05;4.77;91.82
66586;SHT30;53444;45.822;16.092;2022-12-10T15:34:39;4.87;91.96
66586;SHT30;53444;45.822;16.092;2022-12-10T15:37:15;4.82;92.33
66586;SHT30;53444;45.822;16.092;2022-12-10T15:39:46;4.83;92.34
66586;SHT30;53444;45.822;16.092;2022-12-10T15:42:36;4.77;92.47
66586;SHT30;53444;45.822;16.092;2022-12-10T15:45:15;4.76;92.86
66586;SHT30;53444;45.822;16.092;2022-12-10T15:47:43;4.90;91.58
66586;SHT30;53444;45.822;16.092;2022-12-10T15:50:11;4.86;92.04
66586;SHT30;53444;45.822;16.092;2022-12-10T15:52:38;4.83;92.20
66586;SHT30;53444;45.822;16.092;2022-12-10T15:55:06;4.86;92.08
66586;SHT30;53444;45.822;16.092;2022-12-10T15:57:34;4.77;91.27
66586;SHT30;53444;45.822;16.092;2022-12-10T16:00:06;4.77;91.93
66586;SHT30;53444;45.822;16.092;2022-12-10T16:02:36;4.69;92.67